ADDS TAF Board INFO
 
 

IDs: Format: Expanded Condensed

KATL - Atlanta/Hartsfield-J, GA, US

Issued at 0130 UTC 29 Jul 2014
Time0152Z29/03Z29/04Z29/05Z29/06Z29/07Z29/08Z29/09Z29/10Z29/11Z29/12Z29/13Z29/14Z29/15Z
TypeOBSPRVLPRVLPRVLPRVLPRVLPRVLPRVLPRVLPRVLPRVLPRVLPRVLPRVL
Vis10>6>6>6>6>6>6>6>6>6>6>6>6>6
Cig----------------------------
CoverCLRFEWFEWFEWFEWFEWFEWFEWFEWFEWFEWFEWFEWFEW
FltCat--VFRVFRVFRVFRVFRVFRVFRVFRVFRVFRVFRVFRVFR
Wx----------------------------
WDir340320320320320320320320320320320320320320
WSpd68888888888888
WGst----------------------------
R08/26
XWnd66666666666666
HWnd-2-5-5-5-5-5-5-5-5-5-5-5-5-5
R09/27
XWnd66666666666666
HWnd-2-5-5-5-5-5-5-5-5-5-5-5-5-5
R10/28
XWnd66666666666666
HWnd-2-5-5-5-5-5-5-5-5-5-5-5-5-5
Raw TAF
KATL 290130Z 2902/3006 32008KT P6SM FEW070
  FM291600 33012G18KT P6SM SCT050
  FM300000 34007KT P6SM SKC


Raw METAR
KATL 290152Z 34006KT 10SM CLR 26/15 A2997 RMK AO2 SLP137 T02560150

TAF Board Legend

Hazard Green Yellow Red Magenta
Visibility (sm) >5 >2.99 >0.99 <=0.99
Ceiling (100 ft) >30 >9.99 >4.99 <=4.99
Wind Speed (kt) <10 <20 <30 >=30
Wind Gust (kt) <10 <20 <30 >=30
Weather No Wx Reported Light precipitation Moderate precipitation Heavy precipitation
Flight Category VFR MVFR IFR LIFR

Page loaded:  02:33 UTC  |   07:33 PM Pacific  |   08:33 PM Mountain  |   09:33 PM Central  |   10:33 PM Eastern

 

ADVISORIES

FORECASTS

FORECASTS

OBSERVATIONS

USER TOOLS

ABOUT US